createdAt,value
2023-01-01T00:02:37.011Z,2.40
2023-01-01T00:05:24.806Z,1.70
2023-01-01T00:08:11.776Z,2.00
2023-01-01T00:11:02.235Z,1.90
2023-01-01T00:13:49.960Z,2.10
2023-01-01T00:16:36.705Z,2.00
2023-01-01T00:19:23.249Z,2.70
2023-01-01T00:22:44.126Z,1.60
2023-01-01T00:25:18.399Z,2.40
2023-01-01T00:28:05.334Z,2.30
2023-01-01T00:30:52.016Z,2.00
2023-01-01T00:33:38.821Z,2.90
2023-01-01T00:36:27.239Z,2.50
2023-01-01T00:39:13.714Z,2.30
2023-01-01T00:42:00.223Z,1.50
2023-01-01T00:44:46.900Z,1.60
2023-01-01T00:47:33.205Z,2.40
2023-01-01T00:50:20.765Z,1.80
2023-01-01T00:53:07.073Z,1.50
2023-01-01T00:55:56.395Z,1.30
2023-01-01T00:58:43.219Z,1.80
2023-01-01T01:01:29.859Z,1.40
2023-01-01T01:04:16.219Z,1.50
2023-01-01T01:07:02.594Z,1.50
2023-01-01T01:09:51.273Z,1.50
2023-01-01T01:12:38.092Z,1.60
2023-01-01T01:15:24.670Z,2.00
2023-01-01T01:18:11.034Z,1.40
2023-01-01T01:20:57.124Z,1.70
2023-01-01T01:23:44.227Z,1.10
2023-01-01T01:26:32.373Z,1.90
2023-01-01T01:29:18.976Z,1.50
2023-01-01T01:32:06.024Z,1.50
2023-01-01T01:34:52.632Z,1.50
2023-01-01T01:37:38.832Z,2.30
2023-01-01T01:40:25.268Z,1.50
2023-01-01T01:43:21.103Z,1.60
2023-01-01T01:46:19.110Z,1.70
2023-01-01T01:49:16.138Z,2.00
2023-01-01T01:52:02.320Z,1.30
2023-01-01T01:54:49.022Z,1.70
2023-01-01T01:57:36.880Z,1.70
2023-01-01T02:00:22.976Z,1.50
2023-01-01T02:03:12.875Z,1.80
2023-01-01T02:05:59.559Z,1.80
2023-01-01T02:08:46.080Z,1.40
2023-01-01T02:11:32.698Z,1.70
2023-01-01T02:14:19.365Z,1.30
2023-01-01T02:17:38.723Z,1.90
2023-01-01T02:20:44.151Z,1.10
2023-01-01T02:24:15.344Z,1.70
2023-01-01T02:27:25.012Z,1.60
2023-01-01T02:30:11.819Z,1.40
2023-01-01T02:33:02.915Z,1.40
2023-01-01T02:35:54.161Z,1.50
2023-01-01T02:38:46.738Z,1.50
2023-01-01T02:41:41.297Z,1.60
2023-01-01T02:44:29.556Z,1.50
2023-01-01T02:47:18.584Z,2.00
2023-01-01T02:50:11.933Z,1.60
2023-01-01T02:53:04.054Z,1.10
2023-01-01T02:56:14.727Z,1.30
2023-01-01T02:59:26.553Z,1.50
2023-01-01T03:02:37.936Z,1.60
2023-01-01T03:05:33.499Z,1.50
2023-01-01T03:08:25.321Z,1.70
2023-01-01T03:11:14.516Z,1.00
2023-01-01T03:14:12.732Z,1.50
2023-01-01T03:17:29.100Z,1.50
2023-01-01T03:20:24.791Z,1.40
2023-01-01T03:23:16.223Z,1.50
2023-01-01T03:26:06.839Z,1.70
2023-01-01T03:31:45.747Z,1.80
2023-01-01T03:34:34.642Z,1.70
2023-01-01T03:37:26.200Z,2.00
2023-01-01T03:40:12.894Z,1.90
2023-01-01T03:43:23.891Z,1.50
2023-01-01T03:46:13.375Z,1.70
2023-01-01T03:49:04.100Z,2.10
2023-01-01T03:51:56.242Z,1.90
2023-01-01T03:54:46.382Z,1.90
2023-01-01T03:57:55.711Z,1.90
2023-01-01T04:00:56.860Z,2.30
2023-01-01T04:03:43.831Z,1.80
2023-01-01T04:06:30.149Z,2.00
2023-01-01T04:09:18.992Z,2.00
2023-01-01T04:12:05.642Z,1.90
2023-01-01T04:14:52.165Z,2.50
2023-01-01T04:17:38.885Z,1.90
2023-01-01T04:20:25.805Z,2.10
2023-01-01T04:23:12.137Z,1.60
2023-01-01T04:25:58.177Z,1.60
2023-01-01T04:28:44.582Z,1.80
2023-01-01T04:31:31.404Z,1.40
2023-01-01T04:34:17.879Z,1.60
2023-01-01T04:37:08.218Z,1.40
2023-01-01T04:39:57.865Z,1.40
2023-01-01T04:42:44.438Z,1.20
2023-01-01T04:45:30.598Z,1.70
2023-01-01T04:48:17.066Z,1.90
2023-01-01T04:51:05.196Z,1.20
2023-01-01T04:53:51.448Z,2.00
2023-01-01T04:56:37.868Z,1.40
2023-01-01T04:59:24.265Z,1.80
2023-01-01T05:02:10.422Z,1.60
2023-01-01T05:04:57.152Z,1.90
2023-01-01T05:07:43.634Z,1.30
2023-01-01T05:10:30.117Z,1.90
2023-01-01T05:13:16.875Z,1.60
2023-01-01T05:16:05.108Z,1.50
2023-01-01T05:18:51.906Z,1.50
2023-01-01T05:21:39.652Z,1.60
2023-01-01T05:24:25.776Z,2.10
2023-01-01T05:27:11.987Z,1.10
2023-01-01T05:29:58.867Z,1.70
2023-01-01T05:32:45.331Z,1.50
2023-01-01T05:35:31.631Z,2.00
2023-01-01T05:38:18.195Z,1.50
2023-01-01T05:41:08.620Z,2.10
2023-01-01T05:43:55.226Z,1.20
2023-01-01T05:46:41.626Z,1.30
2023-01-01T05:49:28.426Z,1.10
2023-01-01T05:52:14.834Z,1.90
2023-01-01T05:55:01.628Z,1.70
2023-01-01T05:57:48.299Z,1.80
2023-01-01T06:00:35.028Z,1.80
2023-01-01T06:03:21.825Z,1.80
2023-01-01T06:06:11.730Z,1.70
2023-01-01T06:09:00.555Z,1.30
2023-01-01T06:11:47.034Z,2.00
2023-01-01T06:14:33.427Z,2.00
2023-01-01T06:17:19.794Z,1.40
2023-01-01T06:20:06.947Z,1.90
2023-01-01T06:22:53.266Z,2.40
2023-01-01T06:25:39.607Z,1.80
2023-01-01T06:28:25.832Z,1.80
2023-01-01T06:31:15.849Z,1.60
2023-01-01T06:34:02.305Z,1.40
2023-01-01T06:36:48.728Z,1.80
2023-01-01T06:39:35.295Z,2.00
2023-01-01T06:42:21.634Z,1.50
2023-01-01T06:45:09.057Z,1.50
2023-01-01T06:47:57.333Z,1.60
2023-01-01T06:50:43.643Z,1.80
2023-01-01T06:53:30.024Z,1.60
2023-01-01T06:56:16.831Z,1.90
2023-01-01T06:59:03.261Z,1.90
2023-01-01T07:01:49.790Z,1.20
2023-01-01T07:04:36.114Z,1.50
2023-01-01T07:07:22.723Z,1.70
2023-01-01T07:10:09.412Z,1.30
2023-01-01T07:12:56.178Z,1.60
2023-01-01T07:15:44.269Z,1.40
2023-01-01T07:18:30.605Z,1.80
2023-01-01T07:21:31.931Z,1.70
2023-01-01T07:24:18.287Z,1.10
2023-01-01T07:27:04.452Z,1.80
2023-01-01T07:29:50.629Z,1.80
2023-01-01T07:32:37.078Z,1.50
2023-01-01T07:35:23.259Z,1.40
2023-01-01T07:38:09.462Z,1.30
2023-01-01T07:40:55.862Z,1.90
2023-01-01T07:43:42.325Z,1.50
2023-01-01T07:46:29.157Z,2.00
2023-01-01T07:52:11.003Z,2.30
2023-01-01T07:54:57.643Z,1.60
2023-01-01T07:57:45.377Z,1.90
2023-01-01T08:00:32.199Z,1.40
2023-01-01T08:03:19.007Z,1.70
2023-01-01T08:06:13.079Z,2.00
2023-01-01T08:08:59.541Z,1.80
2023-01-01T08:11:46.245Z,1.70
2023-01-01T08:14:33.073Z,1.70
2023-01-01T08:17:19.612Z,1.50
2023-01-01T08:20:07.653Z,1.70
2023-01-01T08:22:54.223Z,1.50
2023-01-01T08:25:41.090Z,2.20
2023-01-01T08:28:28.931Z,1.80
2023-01-01T08:31:15.740Z,1.70
2023-01-01T08:34:02.477Z,1.60
2023-01-01T08:36:49.219Z,2.10
2023-01-01T08:39:35.594Z,1.70
2023-01-01T08:42:22.224Z,2.00
2023-01-01T08:45:09.556Z,1.50
2023-01-01T08:47:56.050Z,1.40
2023-01-01T08:50:42.600Z,1.70
2023-01-01T08:53:30.773Z,1.30
2023-01-01T08:56:17.506Z,1.90
2023-01-01T08:59:04.725Z,1.70
2023-01-01T09:01:51.544Z,2.20
2023-01-01T09:04:38.522Z,1.90
2023-01-01T09:07:25.488Z,1.40
2023-01-01T09:10:11.858Z,1.30
2023-01-01T09:12:58.280Z,1.50
2023-01-01T09:15:45.217Z,1.60
2023-01-01T09:18:32.334Z,1.50
2023-01-01T09:21:19.279Z,1.50
2023-01-01T09:24:06.053Z,1.60
2023-01-01T09:26:53.032Z,1.60
2023-01-01T09:29:39.327Z,1.60
2023-01-01T09:32:26.127Z,1.50
2023-01-01T09:35:12.710Z,1.50
2023-01-01T09:37:59.584Z,1.20
2023-01-01T09:40:50.945Z,1.90
2023-01-01T09:43:50.034Z,1.90
2023-01-01T09:46:37.094Z,1.20
2023-01-01T09:49:38.207Z,1.50
2023-01-01T09:52:24.501Z,1.50
2023-01-01T09:55:53.653Z,1.30
2023-01-01T09:58:40.133Z,1.50
2023-01-01T10:01:39.140Z,1.50
2023-01-01T10:04:44.181Z,1.30
2023-01-01T10:07:45.134Z,1.90
2023-01-01T10:10:41.003Z,1.90
2023-01-01T10:13:45.382Z,1.40
2023-01-01T10:16:37.493Z,1.30
2023-01-01T10:19:42.134Z,1.50
2023-01-01T10:22:36.475Z,1.70
2023-01-01T10:25:26.824Z,1.50
2023-01-01T10:28:21.255Z,2.00
2023-01-01T10:31:30.466Z,1.70
2023-01-01T10:34:26.093Z,1.30
2023-01-01T10:37:15.195Z,1.40
2023-01-01T10:40:05.450Z,1.90
2023-01-01T10:42:53.901Z,1.60
2023-01-01T10:46:01.418Z,1.80
2023-01-01T10:49:11.505Z,1.40
2023-01-01T10:51:59.349Z,2.00
2023-01-01T10:54:46.083Z,2.10
2023-01-01T10:57:35.315Z,1.70
2023-01-01T11:00:29.115Z,2.10
2023-01-01T11:03:20.272Z,1.60
2023-01-01T11:06:14.141Z,1.90
2023-01-01T11:09:03.647Z,1.50
2023-01-01T11:12:19.039Z,1.70
2023-01-01T11:15:22.584Z,2.30
2023-01-01T11:18:17.726Z,1.50
2023-01-01T11:21:05.838Z,1.90
2023-01-01T11:24:09.809Z,1.80
2023-01-01T11:27:19.260Z,1.90
2023-01-01T11:30:26.567Z,1.90
2023-01-01T11:33:20.216Z,2.30
2023-01-01T11:36:07.082Z,1.70
2023-01-01T11:39:12.955Z,2.20
2023-01-01T11:41:59.974Z,1.70
2023-01-01T11:44:49.257Z,2.00
2023-01-01T11:47:38.572Z,1.10
2023-01-01T11:50:34.471Z,1.90
2023-01-01T11:53:24.378Z,2.10
2023-01-01T11:56:20.978Z,2.20
2023-01-01T11:59:18.633Z,1.90
2023-01-01T12:02:12.069Z,2.10
2023-01-01T12:05:26.208Z,1.80
2023-01-01T12:08:16.401Z,2.00
2023-01-01T12:11:23.626Z,1.80
2023-01-01T12:14:37.074Z,1.80
2023-01-01T12:17:43.423Z,2.20
2023-01-01T12:20:40.772Z,1.90
2023-01-01T12:23:27.672Z,1.90
2023-01-01T12:26:34.796Z,2.40
2023-01-01T12:29:36.363Z,1.80
2023-01-01T12:32:41.594Z,1.70
2023-01-01T12:35:46.615Z,2.90
2023-01-01T12:38:37.145Z,2.10
2023-01-01T12:41:44.551Z,1.50
2023-01-01T12:47:32.335Z,2.20
2023-01-01T12:50:40.339Z,1.80
2023-01-01T12:53:43.120Z,2.80
2023-01-01T12:57:13.802Z,2.00
2023-01-01T13:00:04.117Z,1.70
2023-01-01T13:05:46.358Z,2.00
2023-01-01T13:08:33.657Z,2.10
2023-01-01T13:11:20.670Z,2.50
2023-01-01T13:14:08.020Z,2.00
2023-01-01T13:16:56.411Z,2.10
2023-01-01T13:19:43.101Z,1.90
2023-01-01T13:22:29.547Z,2.60
2023-01-01T13:25:20.986Z,2.10
2023-01-01T13:28:12.568Z,2.10
2023-01-01T13:30:59.544Z,2.50
2023-01-01T13:34:24.756Z,2.80
2023-01-01T13:37:11.583Z,3.30
2023-01-01T13:40:13.947Z,2.90
2023-01-01T13:43:04.500Z,2.10
2023-01-01T13:46:13.508Z,3.00
2023-01-01T13:49:07.415Z,2.80
2023-01-01T13:52:16.083Z,2.60
2023-01-01T13:55:40.226Z,2.80
2023-01-01T13:59:04.312Z,2.70
2023-01-01T14:01:59.601Z,2.80
2023-01-01T14:07:53.626Z,2.70
2023-01-01T14:10:40.572Z,3.30
2023-01-01T14:13:30.250Z,2.80
2023-01-01T14:16:16.804Z,2.90
2023-01-01T14:19:03.813Z,3.20
2023-01-01T14:21:52.181Z,2.90
2023-01-01T14:24:43.479Z,3.60
2023-01-01T14:27:30.192Z,3.30
2023-01-01T14:30:19.694Z,3.30
2023-01-01T14:33:06.394Z,3.00
2023-01-01T14:35:57.692Z,2.80
2023-01-01T14:38:45.879Z,2.30
2023-01-01T14:41:40.199Z,3.20
2023-01-01T14:44:59.377Z,2.80
2023-01-01T14:47:50.602Z,2.90
2023-01-01T14:50:36.923Z,2.40
2023-01-01T14:53:29.325Z,2.40
2023-01-01T14:56:33.981Z,2.60
2023-01-01T14:59:33.275Z,3.00
2023-01-01T15:02:28.388Z,2.80
2023-01-01T15:05:26.701Z,2.80
2023-01-01T15:08:20.639Z,5.60
2023-01-01T15:11:07.816Z,3.30
2023-01-01T15:13:55.483Z,3.30
2023-01-01T15:16:42.313Z,2.20
2023-01-01T15:19:28.909Z,3.30
2023-01-01T15:22:31.433Z,3.40
2023-01-01T15:25:19.196Z,2.90
2023-01-01T15:28:07.161Z,4.00
2023-01-01T15:30:57.286Z,4.00
2023-01-01T15:33:48.424Z,7.20
2023-01-01T15:36:35.116Z,3.80
2023-01-01T15:39:21.939Z,3.70
2023-01-01T15:42:50.939Z,3.20
2023-01-01T15:45:39.620Z,3.80
2023-01-01T15:48:37.618Z,4.20
2023-01-01T15:51:26.786Z,4.10
2023-01-01T15:54:16.027Z,3.80
2023-01-01T15:57:02.698Z,4.40
2023-01-01T15:59:50.689Z,3.70
2023-01-01T16:02:39.174Z,3.60
2023-01-01T16:05:27.422Z,7.00
2023-01-01T16:08:14.158Z,3.30
2023-01-01T16:11:00.893Z,3.80
2023-01-01T16:13:48.351Z,3.20
2023-01-01T16:16:37.063Z,3.90
2023-01-01T16:19:24.287Z,3.50
2023-01-01T16:22:14.368Z,2.90
2023-01-01T16:25:00.979Z,4.20
2023-01-01T16:27:48.059Z,4.50
2023-01-01T16:30:34.872Z,4.00
2023-01-01T16:33:23.850Z,4.70
2023-01-01T16:36:12.358Z,4.10
2023-01-01T16:38:59.316Z,5.00
2023-01-01T16:41:45.971Z,4.80
2023-01-01T16:44:32.399Z,3.80
2023-01-01T16:47:19.141Z,4.20
2023-01-01T16:50:05.695Z,3.70
2023-01-01T16:52:52.670Z,3.80
2023-01-01T16:55:39.708Z,3.70
2023-01-01T17:01:33.274Z,4.10
2023-01-01T17:04:20.193Z,3.20
2023-01-01T17:07:06.932Z,4.00
2023-01-01T17:09:53.650Z,4.90
2023-01-01T17:12:40.136Z,4.60
2023-01-01T17:15:27.223Z,4.30
2023-01-01T17:18:13.928Z,4.60
2023-01-01T17:21:08.320Z,5.30
2023-01-01T17:23:54.695Z,6.30
2023-01-01T17:26:42.262Z,9.30
2023-01-01T17:29:28.689Z,6.60
2023-01-01T17:32:15.918Z,5.20
2023-01-01T17:35:03.640Z,5.20
2023-01-01T17:37:50.318Z,5.20
2023-01-01T17:40:37.365Z,5.50
2023-01-01T17:43:24.976Z,4.00
2023-01-01T17:46:23.759Z,6.40
2023-01-01T17:49:10.743Z,4.90
2023-01-01T17:51:57.255Z,5.40
2023-01-01T17:54:43.734Z,4.30
2023-01-01T17:57:30.272Z,4.00
2023-01-01T18:00:16.932Z,4.60
2023-01-01T18:03:03.458Z,4.30
2023-01-01T18:05:50.053Z,4.50
2023-01-01T18:08:36.941Z,3.90
2023-01-01T18:11:24.491Z,4.10
2023-01-01T18:14:12.350Z,5.40
2023-01-01T18:16:58.776Z,4.20
2023-01-01T18:19:46.249Z,5.30
2023-01-01T18:22:36.642Z,4.20
2023-01-01T18:25:26.146Z,4.40
2023-01-01T18:28:12.744Z,5.20
2023-01-01T18:31:13.452Z,5.00
2023-01-01T18:34:03.386Z,4.50
2023-01-01T18:36:50.243Z,6.20
2023-01-01T18:39:41.922Z,5.30
2023-01-01T18:42:50.435Z,4.60
2023-01-01T18:45:36.967Z,5.10
2023-01-01T18:48:23.506Z,6.10
2023-01-01T18:51:18.361Z,5.90
2023-01-01T18:54:11.923Z,6.00
2023-01-01T18:57:23.650Z,8.10
2023-01-01T19:00:17.884Z,5.80
2023-01-01T19:03:17.962Z,4.80
2023-01-01T19:06:16.670Z,6.40
2023-01-01T19:09:08.659Z,6.20
2023-01-01T19:11:55.563Z,5.90
2023-01-01T19:14:41.792Z,5.90
2023-01-01T19:17:28.878Z,4.40
2023-01-01T19:20:23.417Z,4.30
2023-01-01T19:23:13.218Z,4.90
2023-01-01T19:26:03.751Z,4.70
2023-01-01T19:29:19.923Z,3.30
2023-01-01T19:32:06.843Z,4.30
2023-01-01T19:34:53.750Z,4.90
2023-01-01T19:37:40.591Z,3.00
2023-01-01T19:40:27.302Z,4.80
2023-01-01T19:43:13.649Z,2.50
2023-01-01T19:46:01.258Z,3.40
2023-01-01T19:48:49.238Z,4.00
2023-01-01T19:51:36.859Z,3.70
2023-01-01T19:54:23.451Z,4.30
2023-01-01T19:57:10.508Z,4.60
2023-01-01T19:59:57.217Z,3.60
2023-01-01T20:02:46.477Z,3.70
2023-01-01T20:05:35.438Z,2.20
2023-01-01T20:08:22.213Z,2.90
2023-01-01T20:11:08.630Z,3.90
2023-01-01T20:13:55.366Z,4.80
2023-01-01T20:16:43.127Z,4.80
2023-01-01T20:19:29.854Z,6.50
2023-01-01T20:22:17.794Z,6.50
2023-01-01T20:25:05.485Z,7.60
2023-01-01T20:28:11.033Z,6.50
2023-01-01T20:30:57.620Z,3.70
2023-01-01T20:33:44.746Z,5.30
2023-01-01T20:36:49.584Z,7.00
2023-01-01T20:39:36.232Z,6.80
2023-01-01T20:42:23.221Z,6.70
2023-01-01T20:45:10.532Z,5.70
2023-01-01T20:47:58.795Z,5.30
2023-01-01T20:50:45.105Z,5.60
2023-01-01T20:53:32.734Z,4.70
2023-01-01T20:56:19.897Z,4.80
2023-01-01T20:59:24.620Z,5.60
2023-01-01T21:02:14.041Z,7.60
2023-01-01T21:05:01.741Z,7.80
2023-01-01T21:07:48.269Z,7.10
2023-01-01T21:10:34.538Z,7.00
2023-01-01T21:13:21.002Z,6.80
2023-01-01T21:16:23.749Z,8.90
2023-01-01T21:19:12.704Z,8.90
2023-01-01T21:21:59.673Z,9.90
2023-01-01T21:24:51.559Z,8.40
2023-01-01T21:27:40.659Z,6.50
2023-01-01T21:30:27.311Z,5.80
2023-01-01T21:33:26.278Z,5.90
2023-01-01T21:36:21.935Z,6.10
2023-01-01T21:39:11.391Z,7.90
2023-01-01T21:42:31.016Z,7.30
2023-01-01T21:45:31.955Z,5.50
2023-01-01T21:48:27.192Z,5.70
2023-01-01T21:51:23.288Z,6.10
2023-01-01T21:54:10.515Z,5.30
2023-01-01T21:57:01.743Z,5.70
2023-01-01T21:59:49.856Z,4.60
2023-01-01T22:02:39.664Z,5.10
2023-01-01T22:05:31.457Z,8.00
2023-01-01T22:08:25.153Z,7.20
2023-01-01T22:11:28.243Z,5.60
2023-01-01T22:14:21.771Z,6.90
2023-01-01T22:17:20.162Z,6.60
2023-01-01T22:20:22.485Z,9.70
2023-01-01T22:23:28.769Z,8.60
2023-01-01T22:26:22.062Z,7.80
2023-01-01T22:29:24.559Z,7.30
2023-01-01T22:32:28.658Z,6.60
2023-01-01T22:35:28.499Z,5.50
2023-01-01T22:38:18.513Z,6.10
2023-01-01T22:41:04.929Z,6.10
2023-01-01T22:43:57.419Z,4.30
2023-01-01T22:46:44.122Z,5.50
2023-01-01T22:49:38.304Z,5.70
2023-01-01T22:52:24.909Z,6.40
2023-01-01T22:55:11.616Z,7.00
2023-01-01T22:57:58.494Z,6.40
2023-01-01T23:00:45.720Z,6.60
2023-01-01T23:03:32.493Z,6.70
2023-01-01T23:06:19.323Z,6.10
2023-01-01T23:09:06.590Z,6.60
2023-01-01T23:11:54.883Z,5.60
2023-01-01T23:15:00.552Z,4.80
2023-01-01T23:17:46.814Z,6.70
2023-01-01T23:20:33.598Z,5.00
2023-01-01T23:23:20.381Z,5.90
2023-01-01T23:26:07.516Z,5.60
2023-01-01T23:28:55.277Z,5.00
2023-01-01T23:31:42.182Z,6.40
2023-01-01T23:34:28.978Z,6.40
2023-01-01T23:37:16.116Z,4.50
2023-01-01T23:40:02.407Z,5.90
2023-01-01T23:42:49.193Z,5.10
2023-01-01T23:45:37.351Z,7.10
2023-01-01T23:48:24.410Z,6.40
2023-01-01T23:51:11.353Z,6.00
2023-01-01T23:53:58.453Z,5.30
2023-01-01T23:56:45.207Z,3.50
2023-01-01T23:59:31.752Z,4.70
